Time,TemperatureF,DewpointF,PressureIn,WindDirection,WindDirectionDegrees,WindSpeedMPH,WindSpeedGustMPH,Humidity,HourlyPrecipIn,Conditions,Clouds,dailyrainin,SoftwareType,DateUTC
2013-02-25 00:00:00,33.5,21.8,29.91,North,0,0.0,0.0,62,0.00,,,0.01,WUHU216HW,2013-02-25 05:00:00,
2013-02-25 00:01:00,33.5,21.8,29.91,North,0,0.0,0.0,62,0.00,,,0.01,WUHU216HW,2013-02-25 05:01:00,
2013-02-25 00:02:00,33.3,21.7,29.90,North,0,0.0,0.0,62,0.00,,,0.00,WUHU216HW,2013-02-25 05:02:00,
2013-02-25 00:07:00,33.3,21.7,29.90,North,0,0.0,0.0,62,0.00,,,0.00,WUHU216HW,2013-02-25 05:07:00,
2013-02-25 00:12:00,33.1,21.5,29.91,North,0,0.0,0.0,62,0.00,,,0.00,WUHU216HW,2013-02-25 05:12:00,
2013-02-25 00:17:00,32.9,21.7,29.90,North,0,0.0,0.0,63,0.00,,,0.00,WUHU216HW,2013-02-25 05:17:00,
2013-02-25 00:22:00,32.9,21.7,29.91,North,0,0.0,0.0,63,0.00,,,0.00,WUHU216HW,2013-02-25 05:22:00,
2013-02-25 00:27:00,32.9,21.7,29.91,North,0,0.0,0.0,63,0.00,,,0.00,WUHU216HW,2013-02-25 05:27:00,
2013-02-25 00:32:00,32.8,21.5,29.91,North,0,0.0,0.0,63,0.00,,,0.00,WUHU216HW,2013-02-25 05:32:00,
2013-02-25 00:37:00,32.6,21.3,29.91,North,0,0.0,0.0,63,0.00,,,0.00,WUHU216HW,2013-02-25 05:37:00,
2013-02-25 00:42:00,32.6,22.1,29.91,North,0,0.0,0.0,65,0.00,,,0.00,WUHU216HW,2013-02-25 05:42:00,
2013-02-25 00:47:00,32.4,21.6,29.91,North,0,0.0,0.0,64,0.00,,,0.00,WUHU216HW,2013-02-25 05:47:00,
2013-02-25 00:52:00,32.2,21.4,29.91,North,0,0.0,0.0,64,0.00,,,0.00,WUHU216HW,2013-02-25 05:52:00,
2013-02-25 00:57:00,32.0,21.6,29.92,North,0,0.0,0.0,65,0.00,,,0.00,WUHU216HW,2013-02-25 05:57:00,
2013-02-25 01:02:00,32.0,21.6,29.91,North,0,0.0,0.0,65,0.00,,,0.00,WUHU216HW,2013-02-25 06:02:00,
2013-02-25 01:07:00,32.0,22.0,29.92,North,0,0.0,0.0,66,0.00,,,0.00,WUHU216HW,2013-02-25 06:07:00,
2013-02-25 01:12:00,32.0,21.6,29.92,North,0,0.0,0.0,65,0.00,,,0.00,WUHU216HW,2013-02-25 06:12:00,
2013-02-25 01:17:00,31.9,21.8,29.92,North,0,0.0,0.0,66,0.00,,,0.00,WUHU216HW,2013-02-25 06:17:00,
2013-02-25 01:22:00,31.9,21.8,29.92,North,0,0.0,0.0,66,0.00,,,0.00,WUHU216HW,2013-02-25 06:22:00,
2013-02-25 01:27:00,31.7,21.6,29.92,North,0,0.0,0.0,66,0.00,,,0.00,WUHU216HW,2013-02-25 06:27:00,
2013-02-25 01:32:00,31.7,21.6,29.91,North,0,0.0,0.0,66,0.00,,,0.00,WUHU216HW,2013-02-25 06:32:00,
2013-02-25 01:37:00,31.5,21.4,29.92,North,0,0.0,0.0,66,0.00,,,0.00,WUHU216HW,2013-02-25 06:37:00,
2013-02-25 01:42:00,31.5,21.4,29.92,North,0,0.0,0.0,66,0.00,,,0.00,WUHU216HW,2013-02-25 06:42:00,
2013-02-25 01:47:00,31.3,21.2,29.92,North,0,0.0,0.0,66,0.00,,,0.00,WUHU216HW,2013-02-25 06:47:00,
2013-02-25 01:52:00,31.3,21.2,29.92,North,0,0.0,0.0,66,0.00,,,0.00,WUHU216HW,2013-02-25 06:52:00,
2013-02-25 01:57:00,31.3,21.2,29.92,North,0,0.0,0.0,66,0.00,,,0.00,WUHU216HW,2013-02-25 06:57:00,
2013-02-25 02:02:00,31.3,21.2,29.92,North,0,0.0,0.0,66,0.00,,,0.00,WUHU216HW,2013-02-25 07:02:00,
2013-02-25 02:07:00,31.5,21.4,29.92,North,0,0.0,0.0,66,0.00,,,0.00,WUHU216HW,2013-02-25 07:07:00,
2013-02-25 02:12:00,31.3,21.2,29.92,North,0,0.0,0.0,66,0.00,,,0.00,WUHU216HW,2013-02-25 07:12:00,
2013-02-25 02:17:00,31.3,21.2,29.92,North,0,0.0,0.0,66,0.00,,,0.00,WUHU216HW,2013-02-25 07:17:00,
2013-02-25 02:22:00,31.1,21.1,29.93,North,0,0.0,0.0,66,0.00,,,0.00,WUHU216HW,2013-02-25 07:22:00,
2013-02-25 02:27:00,31.1,21.1,29.92,North,0,0.0,0.0,66,0.00,,,0.00,WUHU216HW,2013-02-25 07:27:00,
2013-02-25 02:32:00,31.0,20.9,29.92,North,0,0.0,0.0,66,0.00,,,0.00,WUHU216HW,2013-02-25 07:32:00,
2013-02-25 02:37:00,30.8,20.7,29.92,North,0,0.0,0.0,66,0.00,,,0.00,WUHU216HW,2013-02-25 07:37:00,
2013-02-25 02:42:00,30.6,20.5,29.93,North,0,0.0,0.0,66,0.00,,,0.00,WUHU216HW,2013-02-25 07:42:00,
2013-02-25 02:47:00,30.6,20.9,29.92,North,0,0.0,0.0,67,0.00,,,0.00,WUHU216HW,2013-02-25 07:47:00,
2013-02-25 02:52:00,30.8,21.1,29.92,North,0,0.0,0.0,67,0.00,,,0.00,WUHU216HW,2013-02-25 07:52:00,
2013-02-25 02:57:00,31.0,21.2,29.92,North,0,0.0,0.0,67,0.00,,,0.00,WUHU216HW,2013-02-25 07:57:00,
2013-02-25 03:02:00,31.1,21.4,29.92,North,0,0.0,0.0,67,0.00,,,0.00,WUHU216HW,2013-02-25 08:02:00,
2013-02-25 03:07:00,31.1,21.4,29.91,North,0,0.0,0.0,67,0.00,,,0.00,WUHU216HW,2013-02-25 08:07:00,
2013-02-25 03:12:00,31.1,21.4,29.91,North,0,0.0,0.0,67,0.00,,,0.00,WUHU216HW,2013-02-25 08:12:00,
2013-02-25 03:17:00,31.1,21.4,29.91,North,0,0.0,0.0,67,0.00,,,0.00,WUHU216HW,2013-02-25 08:17:00,
2013-02-25 03:23:00,30.8,21.1,29.91,North,0,0.0,0.0,67,0.00,,,0.00,WUHU216HW,2013-02-25 08:23:00,
2013-02-25 03:28:00,31.0,21.2,29.91,North,0,0.0,0.0,67,0.00,,,0.00,WUHU216HW,2013-02-25 08:28:00,
2013-02-25 03:33:00,31.0,21.2,29.92,North,0,0.0,0.0,67,0.00,,,0.00,WUHU216HW,2013-02-25 08:33:00,
2013-02-25 03:38:00,31.1,21.4,29.92,North,0,0.0,0.0,67,0.00,,,0.00,WUHU216HW,2013-02-25 08:38:00,
2013-02-25 03:43:00,31.1,21.4,29.92,North,0,0.0,0.0,67,0.00,,,0.00,WUHU216HW,2013-02-25 08:43:00,
2013-02-25 03:48:00,31.1,21.4,29.93,North,0,0.0,0.0,67,0.00,,,0.00,WUHU216HW,2013-02-25 08:48:00,
2013-02-25 03:53:00,31.1,21.4,29.93,North,0,0.0,0.0,67,0.00,,,0.00,WUHU216HW,2013-02-25 08:53:00,
2013-02-25 03:58:00,31.0,21.2,29.93,North,0,0.0,0.0,67,0.00,,,0.00,WUHU216HW,2013-02-25 08:58:00,
2013-02-25 04:03:00,31.0,21.2,29.93,North,0,0.0,0.0,67,0.00,,,0.00,WUHU216HW,2013-02-25 09:03:00,
2013-02-25 04:08:00,31.0,21.2,29.93,North,0,0.0,0.0,67,0.00,,,0.00,WUHU216HW,2013-02-25 09:08:00,
2013-02-25 04:13:00,31.0,21.2,29.93,North,0,0.0,0.0,67,0.00,,,0.00,WUHU216HW,2013-02-25 09:13:00,
2013-02-25 04:18:00,31.0,21.2,29.93,North,0,0.0,0.0,67,0.00,,,0.00,WUHU216HW,2013-02-25 09:18:00,
2013-02-25 04:23:00,30.8,21.1,29.93,North,0,0.0,0.0,67,0.00,,,0.00,WUHU216HW,2013-02-25 09:23:00,
2013-02-25 04:28:00,30.6,20.9,29.93,North,0,0.0,0.0,67,0.00,,,0.00,WUHU216HW,2013-02-25 09:28:00,
2013-02-25 04:33:00,31.0,21.2,29.93,North,0,0.0,0.0,67,0.00,,,0.00,WUHU216HW,2013-02-25 09:33:00,
2013-02-25 04:38:00,31.1,21.4,29.93,North,0,0.0,0.0,67,0.00,,,0.00,WUHU216HW,2013-02-25 09:38:00,
2013-02-25 04:43:00,31.0,21.2,29.93,North,0,0.0,0.0,67,0.00,,,0.00,WUHU216HW,2013-02-25 09:43:00,
2013-02-25 04:48:00,31.0,21.2,29.93,North,0,0.0,0.0,67,0.00,,,0.00,WUHU216HW,2013-02-25 09:48:00,
2013-02-25 04:53:00,30.8,21.1,29.93,North,0,0.0,0.0,67,0.00,,,0.00,WUHU216HW,2013-02-25 09:53:00,
2013-02-25 04:58:00,30.8,21.1,29.93,North,0,0.0,0.0,67,0.00,,,0.00,WUHU216HW,2013-02-25 09:58:00,
2013-02-25 05:03:00,30.6,20.9,29.93,North,0,0.0,0.0,67,0.00,,,0.00,WUHU216HW,2013-02-25 10:03:00,
2013-02-25 05:08:00,30.6,20.9,29.93,North,0,0.0,0.0,67,0.00,,,0.00,WUHU216HW,2013-02-25 10:08:00,
2013-02-25 05:13:00,31.0,21.6,29.93,North,0,0.0,0.0,68,0.00,,,0.00,WUHU216HW,2013-02-25 10:13:00,
2013-02-25 05:18:00,31.0,21.2,29.93,North,0,0.0,0.0,67,0.00,,,0.00,WUHU216HW,2013-02-25 10:18:00,
2013-02-25 05:23:00,31.0,21.2,29.93,North,0,0.0,0.0,67,0.00,,,0.00,WUHU216HW,2013-02-25 10:23:00,
2013-02-25 05:28:00,31.0,21.2,29.94,North,0,0.0,0.0,67,0.00,,,0.00,WUHU216HW,2013-02-25 10:28:00,
2013-02-25 05:33:00,30.8,21.1,29.95,North,0,0.0,0.0,67,0.00,,,0.00,WUHU216HW,2013-02-25 10:33:00,
2013-02-25 05:38:00,30.6,20.9,29.95,North,0,0.0,0.0,67,0.00,,,0.00,WUHU216HW,2013-02-25 10:38:00,
2013-02-25 05:43:00,30.6,21.2,29.95,North,0,0.0,0.0,68,0.00,,,0.00,WUHU216HW,2013-02-25 10:43:00,
2013-02-25 05:48:00,30.4,21.1,29.96,North,0,0.0,0.0,68,0.00,,,0.00,WUHU216HW,2013-02-25 10:48:00,
2013-02-25 05:53:00,30.4,21.1,29.95,North,0,0.0,0.0,68,0.00,,,0.00,WUHU216HW,2013-02-25 10:53:00,
2013-02-25 05:58:00,30.4,21.1,29.96,North,0,0.0,0.0,68,0.00,,,0.00,WUHU216HW,2013-02-25 10:58:00,
2013-02-25 06:03:00,30.2,20.9,29.96,North,0,0.0,0.0,68,0.00,,,0.00,WUHU216HW,2013-02-25 11:03:00,
2013-02-25 06:09:00,30.1,20.7,29.96,North,0,0.0,0.0,68,0.00,,,0.00,WUHU216HW,2013-02-25 11:09:00,
2013-02-25 06:14:00,29.9,20.5,29.95,North,0,0.0,0.0,68,0.00,,,0.00,WUHU216HW,2013-02-25 11:14:00,
2013-02-25 06:19:00,29.7,20.4,29.96,North,0,0.0,0.0,68,0.00,,,0.00,WUHU216HW,2013-02-25 11:19:00,
2013-02-25 06:24:00,29.5,20.6,29.96,North,0,0.0,0.0,69,0.00,,,0.00,WUHU216HW,2013-02-25 11:24:00,
2013-02-25 06:29:00,29.5,20.6,29.97,North,0,0.0,0.0,69,0.00,,,0.00,WUHU216HW,2013-02-25 11:29:00,
2013-02-25 06:34:00,29.2,20.3,29.97,North,0,0.0,0.0,69,0.00,,,0.00,WUHU216HW,2013-02-25 11:34:00,
2013-02-25 06:39:00,29.2,20.6,29.97,North,0,0.0,0.0,70,0.00,,,0.00,WUHU216HW,2013-02-25 11:39:00,
2013-02-25 06:44:00,29.2,20.6,29.97,North,0,0.0,0.0,70,0.00,,,0.00,WUHU216HW,2013-02-25 11:44:00,
2013-02-25 06:49:00,29.2,20.6,29.97,North,0,0.0,0.0,70,0.00,,,0.00,WUHU216HW,2013-02-25 11:49:00,
2013-02-25 06:54:00,29.2,20.6,29.97,North,0,0.0,0.0,70,0.00,,,0.00,WUHU216HW,2013-02-25 11:54:00,
2013-02-25 06:59:00,29.3,20.8,29.97,North,0,0.0,0.0,70,0.00,,,0.00,WUHU216HW,2013-02-25 11:59:00,
2013-02-25 07:04:00,29.3,20.8,29.97,North,0,0.0,0.0,70,0.00,,,0.00,WUHU216HW,2013-02-25 12:04:00,
2013-02-25 07:09:00,29.3,20.8,29.97,North,0,0.0,0.0,70,0.00,,,0.00,WUHU216HW,2013-02-25 12:09:00,
2013-02-25 07:14:00,29.5,21.0,29.97,North,0,0.0,0.0,70,0.00,,,0.00,WUHU216HW,2013-02-25 12:14:00,
2013-02-25 07:19:00,29.7,21.4,29.97,North,0,0.0,0.0,71,0.00,,,0.00,WUHU216HW,2013-02-25 12:19:00,
2013-02-25 07:24:00,29.9,21.2,29.97,North,0,0.0,0.0,70,0.00,,,0.00,WUHU216HW,2013-02-25 12:24:00,
2013-02-25 07:29:00,29.9,21.2,29.98,North,0,0.0,0.0,70,0.00,,,0.00,WUHU216HW,2013-02-25 12:29:00,
2013-02-25 07:34:00,29.9,21.6,29.98,North,0,0.0,0.0,71,0.00,,,0.00,WUHU216HW,2013-02-25 12:34:00,
2013-02-25 07:39:00,30.2,22.0,29.98,North,0,0.0,0.0,71,0.00,,,0.00,WUHU216HW,2013-02-25 12:39:00,
2013-02-25 07:44:00,30.6,22.0,29.98,North,0,0.0,0.0,70,0.00,,,0.00,WUHU216HW,2013-02-25 12:44:00,
2013-02-25 07:49:00,30.6,22.0,29.98,North,0,0.0,0.0,70,0.00,,,0.00,WUHU216HW,2013-02-25 12:49:00,
2013-02-25 07:54:00,31.0,22.3,29.98,North,0,0.0,0.0,70,0.00,,,0.00,WUHU216HW,2013-02-25 12:54:00,
2013-02-25 07:59:00,31.3,22.7,29.98,North,0,0.0,0.0,70,0.00,,,0.00,WUHU216HW,2013-02-25 12:59:00,
2013-02-25 08:05:00,31.7,22.7,29.98,North,0,0.0,0.0,69,0.00,,,0.00,WUHU216HW,2013-02-25 13:05:00,
2013-02-25 08:10:00,32.0,23.0,29.98,North,0,0.0,0.0,69,0.00,,,0.00,WUHU216HW,2013-02-25 13:10:00,
2013-02-25 08:15:00,32.6,23.1,29.98,North,0,0.0,0.0,68,0.00,,,0.00,WUHU216HW,2013-02-25 13:15:00,
2013-02-25 08:20:00,32.9,23.5,29.98,North,0,0.0,0.0,68,0.00,,,0.00,WUHU216HW,2013-02-25 13:20:00,
2013-02-25 08:25:00,33.5,23.2,29.98,North,0,0.0,0.0,66,0.00,,,0.00,WUHU216HW,2013-02-25 13:25:00,
2013-02-25 08:30:00,33.8,23.6,29.98,North,0,0.0,0.0,66,0.00,,,0.00,WUHU216HW,2013-02-25 13:30:00,
2013-02-25 08:35:00,34.2,23.9,29.98,North,0,0.0,0.0,66,0.00,,,0.00,WUHU216HW,2013-02-25 13:35:00,
2013-02-25 08:40:00,34.6,23.9,29.98,North,0,0.0,0.0,65,0.00,,,0.00,WUHU216HW,2013-02-25 13:40:00,
2013-02-25 08:45:00,34.9,23.9,29.99,North,0,0.0,0.0,64,0.00,,,0.00,WUHU216HW,2013-02-25 13:45:00,
2013-02-25 08:50:00,35.3,24.3,29.98,North,0,0.0,0.0,64,0.00,,,0.00,WUHU216HW,2013-02-25 13:50:00,
2013-02-25 08:55:00,35.6,23.9,29.98,North,0,0.0,0.0,62,0.00,,,0.00,WUHU216HW,2013-02-25 13:55:00,
2013-02-25 09:01:00,36.0,24.3,29.99,North,0,0.0,0.0,62,0.00,,,0.00,WUHU216HW,2013-02-25 14:01:00,
2013-02-25 09:06:00,36.4,24.6,29.99,North,0,0.0,0.0,62,0.00,,,0.00,WUHU216HW,2013-02-25 14:06:00,
2013-02-25 09:11:00,36.7,24.6,29.99,North,0,0.0,0.0,61,0.00,,,0.00,WUHU216HW,2013-02-25 14:11:00,
2013-02-25 09:16:00,37.1,24.9,29.99,North,0,0.0,0.0,61,0.00,,,0.00,WUHU216HW,2013-02-25 14:16:00,
2013-02-25 09:21:00,37.4,24.8,29.99,North,0,0.0,0.0,60,0.00,,,0.00,WUHU216HW,2013-02-25 14:21:00,
2013-02-25 09:26:00,37.8,25.2,29.99,North,0,0.0,0.0,60,0.00,,,0.00,WUHU216HW,2013-02-25 14:26:00,
2013-02-25 09:31:00,38.2,25.8,30.00,North,0,0.0,0.0,61,0.00,,,0.00,WUHU216HW,2013-02-25 14:31:00,
2013-02-25 09:37:00,38.5,25.4,30.00,North,0,0.0,0.0,59,0.00,,,0.00,WUHU216HW,2013-02-25 14:37:00,
2013-02-25 09:42:00,38.9,25.8,30.00,North,0,0.0,0.0,59,0.00,,,0.00,WUHU216HW,2013-02-25 14:42:00,
2013-02-25 09:47:00,39.4,25.7,30.00,North,0,0.0,0.0,58,0.00,,,0.00,WUHU216HW,2013-02-25 14:47:00,
2013-02-25 09:52:00,39.4,25.4,30.00,North,0,0.0,0.0,57,0.00,,,0.00,WUHU216HW,2013-02-25 14:52:00,
2013-02-25 09:57:00,39.8,25.3,30.00,North,0,0.0,0.0,56,0.00,,,0.00,WUHU216HW,2013-02-25 14:57:00,
2013-02-25 10:02:00,40.1,25.6,30.00,North,0,0.0,0.0,56,0.00,,,0.00,WUHU216HW,2013-02-25 15:02:00,
2013-02-25 10:07:00,40.5,25.5,30.00,North,0,0.0,0.0,55,0.00,,,0.00,WUHU216HW,2013-02-25 15:07:00,
2013-02-25 10:12:00,40.7,25.7,30.01,North,0,0.0,0.0,55,0.00,,,0.00,WUHU216HW,2013-02-25 15:12:00,
2013-02-25 10:17:00,40.9,25.8,30.00,North,0,0.0,0.0,55,0.00,,,0.00,WUHU216HW,2013-02-25 15:17:00,
2013-02-25 10:22:00,41.0,26.0,30.00,North,0,0.0,0.0,55,0.00,,,0.00,WUHU216HW,2013-02-25 15:22:00,
2013-02-25 10:27:00,41.0,25.6,30.01,North,0,0.0,0.0,54,0.00,,,0.00,WUHU216HW,2013-02-25 15:27:00,
2013-02-25 10:32:00,41.4,25.9,30.01,North,0,0.0,0.0,54,0.00,,,0.00,WUHU216HW,2013-02-25 15:32:00,
2013-02-25 10:37:00,41.8,26.7,30.01,North,0,0.0,0.0,55,0.00,,,0.00,WUHU216HW,2013-02-25 15:37:00,
2013-02-25 10:42:00,41.9,26.9,30.00,North,0,0.0,0.0,55,0.00,,,0.00,WUHU216HW,2013-02-25 15:42:00,
2013-02-25 10:47:00,42.1,27.0,30.00,North,0,0.0,0.0,55,0.00,,,0.00,WUHU216HW,2013-02-25 15:47:00,
2013-02-25 10:53:00,42.5,26.9,30.00,North,0,0.0,0.0,54,0.00,,,0.00,WUHU216HW,2013-02-25 15:53:00,
2013-02-25 10:58:00,42.5,27.4,30.00,North,0,0.0,0.0,55,0.00,,,0.00,WUHU216HW,2013-02-25 15:58:00,
2013-02-25 11:03:00,42.8,27.3,30.01,North,0,0.0,0.0,54,0.00,,,0.00,WUHU216HW,2013-02-25 16:03:00,
2013-02-25 11:08:00,43.0,27.5,30.00,North,0,0.0,0.0,54,0.00,,,0.00,WUHU216HW,2013-02-25 16:08:00,
2013-02-25 11:13:00,43.6,28.5,30.00,North,0,0.0,0.0,55,0.00,,,0.00,WUHU216HW,2013-02-25 16:13:00,
2013-02-25 11:18:00,44.3,29.1,30.00,North,0,0.0,0.0,55,0.00,,,0.00,WUHU216HW,2013-02-25 16:18:00,
2013-02-25 11:23:00,44.6,28.5,30.00,North,0,0.0,0.0,53,0.00,,,0.00,WUHU216HW,2013-02-25 16:23:00,
2013-02-25 11:28:00,44.8,28.7,30.00,North,0,0.0,0.0,53,0.00,,,0.00,WUHU216HW,2013-02-25 16:28:00,
2013-02-25 11:33:00,45.0,29.4,30.00,North,0,0.0,0.0,54,0.00,,,0.00,WUHU216HW,2013-02-25 16:33:00,
2013-02-25 11:38:00,45.7,29.1,30.00,North,0,0.0,0.0,52,0.00,,,0.00,WUHU216HW,2013-02-25 16:38:00,
2013-02-25 11:43:00,45.9,29.3,30.00,North,0,0.0,0.0,52,0.00,,,0.00,WUHU216HW,2013-02-25 16:43:00,
2013-02-25 11:48:00,46.6,30.8,30.00,North,0,0.0,0.0,54,0.00,,,0.00,WUHU216HW,2013-02-25 16:48:00,
2013-02-25 11:53:00,47.2,30.8,30.00,North,0,0.0,0.0,53,0.00,,,0.00,WUHU216HW,2013-02-25 16:53:00,
2013-02-25 11:58:00,47.7,30.9,30.00,North,0,0.0,0.0,52,0.00,,,0.00,WUHU216HW,2013-02-25 16:58:00,
2013-02-25 12:03:00,47.3,30.1,30.00,North,0,0.0,0.0,51,0.00,,,0.00,WUHU216HW,2013-02-25 17:03:00,
2013-02-25 12:09:00,48.2,31.3,30.00,North,0,0.0,0.0,52,0.00,,,0.00,WUHU216HW,2013-02-25 17:09:00,
2013-02-25 12:14:00,48.4,30.1,30.00,North,0,0.0,0.0,49,0.00,,,0.00,WUHU216HW,2013-02-25 17:14:00,
2013-02-25 12:19:00,48.6,31.2,30.00,North,0,0.0,0.0,51,0.00,,,0.00,WUHU216HW,2013-02-25 17:19:00,
2013-02-25 12:24:00,49.9,32.5,30.00,North,0,0.0,0.0,51,0.00,,,0.00,WUHU216HW,2013-02-25 17:24:00,
2013-02-25 12:29:00,49.7,31.9,30.00,North,0,0.0,0.0,50,0.00,,,0.00,WUHU216HW,2013-02-25 17:29:00,
2013-02-25 12:34:00,49.3,30.4,30.00,North,0,0.0,0.0,48,0.00,,,0.00,WUHU216HW,2013-02-25 17:34:00,
2013-02-25 12:39:00,49.1,31.3,30.00,North,0,0.0,0.0,50,0.00,,,0.00,WUHU216HW,2013-02-25 17:39:00,
2013-02-25 12:44:00,50.0,32.7,30.00,North,0,0.0,0.0,51,0.00,,,0.00,WUHU216HW,2013-02-25 17:44:00,
2013-02-25 12:49:00,50.9,33.5,29.99,North,0,0.0,0.0,51,0.00,,,0.00,WUHU216HW,2013-02-25 17:49:00,
2013-02-25 12:54:00,51.1,33.2,29.99,North,0,0.0,0.0,50,0.00,,,0.00,WUHU216HW,2013-02-25 17:54:00,
2013-02-25 12:59:00,51.3,33.4,29.99,North,0,0.0,0.0,50,0.00,,,0.00,WUHU216HW,2013-02-25 17:59:00,
2013-02-25 13:04:00,51.5,32.4,29.99,North,0,0.0,0.0,48,0.00,,,0.00,WUHU216HW,2013-02-25 18:04:00,
2013-02-25 13:09:00,51.5,33.9,29.99,North,0,0.0,0.0,51,0.00,,,0.00,WUHU216HW,2013-02-25 18:09:00,
2013-02-25 13:14:00,52.2,34.7,29.99,North,0,0.0,0.0,51,0.00,,,0.00,WUHU216HW,2013-02-25 18:14:00,
2013-02-25 13:19:00,52.9,35.3,29.99,North,0,0.0,0.0,51,0.00,,,0.00,WUHU216HW,2013-02-25 18:19:00,
2013-02-25 13:24:00,53.3,35.7,29.99,North,0,0.0,0.0,51,0.00,,,0.00,WUHU216HW,2013-02-25 18:24:00,
2013-02-25 13:29:00,53.6,35.9,29.98,North,0,0.0,0.0,51,0.00,,,0.00,WUHU216HW,2013-02-25 18:29:00,
2013-02-25 13:34:00,53.6,35.5,29.99,North,0,0.0,0.0,50,0.00,,,0.00,WUHU216HW,2013-02-25 18:34:00,
2013-02-25 13:40:00,53.5,35.3,29.99,North,0,0.0,0.0,50,0.00,,,0.00,WUHU216HW,2013-02-25 18:40:00,
2013-02-25 13:45:00,53.3,34.6,29.99,North,0,0.0,0.0,49,0.00,,,0.00,WUHU216HW,2013-02-25 18:45:00,
2013-02-25 13:50:00,52.7,34.7,29.99,North,0,0.0,0.0,50,0.00,,,0.00,WUHU216HW,2013-02-25 18:50:00,
2013-02-25 13:55:00,52.7,34.7,29.99,North,0,0.0,0.0,50,0.00,,,0.00,WUHU216HW,2013-02-25 18:55:00,
2013-02-25 14:00:00,53.1,35.0,29.99,North,0,0.0,0.0,50,0.00,,,0.00,WUHU216HW,2013-02-25 19:00:00,
2013-02-25 14:05:00,53.1,35.0,29.99,North,0,0.0,0.0,50,0.00,,,0.00,WUHU216HW,2013-02-25 19:05:00,
2013-02-25 14:10:00,52.9,34.3,29.98,North,0,0.0,0.0,49,0.00,,,0.00,WUHU216HW,2013-02-25 19:10:00,
2013-02-25 14:15:00,52.7,34.7,29.98,North,0,0.0,0.0,50,0.00,,,0.00,WUHU216HW,2013-02-25 19:15:00,
2013-02-25 14:20:00,52.6,34.5,29.98,North,0,0.0,0.0,50,0.00,,,0.00,WUHU216HW,2013-02-25 19:20:00,
2013-02-25 14:25:00,52.6,34.5,29.98,North,0,0.0,0.0,50,0.00,,,0.00,WUHU216HW,2013-02-25 19:25:00,
2013-02-25 14:30:00,52.6,34.5,29.97,North,0,0.0,0.0,50,0.00,,,0.00,WUHU216HW,2013-02-25 19:30:00,
2013-02-25 14:35:00,52.6,33.9,29.97,North,0,0.0,0.0,49,0.00,,,0.00,WUHU216HW,2013-02-25 19:35:00,
2013-02-25 14:40:00,52.6,33.9,29.97,North,0,0.0,0.0,49,0.00,,,0.00,WUHU216HW,2013-02-25 19:40:00,
2013-02-25 14:45:00,52.4,33.8,29.97,North,0,0.0,0.0,49,0.00,,,0.00,WUHU216HW,2013-02-25 19:45:00,
2013-02-25 14:50:00,52.2,33.6,29.97,North,0,0.0,0.0,49,0.00,,,0.00,WUHU216HW,2013-02-25 19:50:00,
2013-02-25 14:55:00,52.2,33.6,29.97,North,0,0.0,0.0,49,0.00,,,0.00,WUHU216HW,2013-02-25 19:55:00,
2013-02-25 15:00:00,52.2,33.6,29.98,North,0,0.0,0.0,49,0.00,,,0.00,WUHU216HW,2013-02-25 20:00:00,
2013-02-25 15:05:00,52.0,33.5,29.98,North,0,0.0,0.0,49,0.00,,,0.00,WUHU216HW,2013-02-25 20:05:00,
2013-02-25 15:11:00,51.7,33.1,29.97,North,0,0.0,0.0,49,0.00,,,0.00,WUHU216HW,2013-02-25 20:11:00,
2013-02-25 15:16:00,51.1,32.7,29.97,North,0,0.0,0.0,49,0.00,,,0.00,WUHU216HW,2013-02-25 20:16:00,
2013-02-25 15:21:00,50.9,32.5,29.97,North,0,0.0,0.0,49,0.00,,,0.00,WUHU216HW,2013-02-25 20:21:00,
2013-02-25 15:26:00,50.8,32.9,29.97,North,0,0.0,0.0,50,0.00,,,0.00,WUHU216HW,2013-02-25 20:26:00,
2013-02-25 15:31:00,50.6,32.7,29.97,North,0,0.0,0.0,50,0.00,,,0.00,WUHU216HW,2013-02-25 20:31:00,
2013-02-25 15:36:00,50.4,32.6,29.97,North,0,0.0,0.0,50,0.00,,,0.00,WUHU216HW,2013-02-25 20:36:00,
2013-02-25 15:41:00,50.0,32.2,29.96,North,0,0.0,0.0,50,0.00,,,0.00,WUHU216HW,2013-02-25 20:41:00,
2013-02-25 15:46:00,49.9,32.0,29.96,North,0,0.0,0.0,50,0.00,,,0.00,WUHU216HW,2013-02-25 20:46:00,
2013-02-25 15:51:00,49.7,31.9,29.96,North,0,0.0,0.0,50,0.00,,,0.00,WUHU216HW,2013-02-25 20:51:00,
2013-02-25 15:56:00,49.3,31.5,29.96,North,0,0.0,0.0,50,0.00,,,0.00,WUHU216HW,2013-02-25 20:56:00,
2013-02-25 16:01:00,49.0,31.1,29.97,North,0,0.0,0.0,50,0.00,,,0.00,WUHU216HW,2013-02-25 21:01:00,
2013-02-25 16:06:00,48.6,31.2,29.97,North,0,0.0,0.0,51,0.00,,,0.00,WUHU216HW,2013-02-25 21:06:00,
2013-02-25 16:11:00,48.4,31.1,29.97,North,0,0.0,0.0,51,0.00,,,0.00,WUHU216HW,2013-02-25 21:11:00,
2013-02-25 16:16:00,48.1,30.7,29.98,North,0,0.0,0.0,51,0.00,,,0.00,WUHU216HW,2013-02-25 21:16:00,
2013-02-25 16:21:00,47.9,30.6,29.98,North,0,0.0,0.0,51,0.00,,,0.00,WUHU216HW,2013-02-25 21:21:00,
2013-02-25 16:26:00,47.5,30.3,29.98,North,0,0.0,0.0,51,0.00,,,0.00,WUHU216HW,2013-02-25 21:26:00,
2013-02-25 16:31:00,47.2,29.9,29.98,North,0,0.0,0.0,51,0.00,,,0.00,WUHU216HW,2013-02-25 21:31:00,
2013-02-25 16:37:00,46.8,30.1,29.98,North,0,0.0,0.0,52,0.00,,,0.00,WUHU216HW,2013-02-25 21:37:00,
2013-02-25 16:42:00,46.4,29.7,29.98,North,0,0.0,0.0,52,0.00,,,0.00,WUHU216HW,2013-02-25 21:42:00,
2013-02-25 16:47:00,46.1,29.3,29.98,North,0,0.0,0.0,52,0.00,,,0.00,WUHU216HW,2013-02-25 21:47:00,
2013-02-25 16:52:00,45.5,28.9,29.98,North,0,0.0,0.0,52,0.00,,,0.00,WUHU216HW,2013-02-25 21:52:00,
2013-02-25 16:57:00,45.2,28.5,29.99,North,0,0.0,0.0,52,0.00,,,0.00,WUHU216HW,2013-02-25 21:57:00,
2013-02-25 17:02:00,45.0,28.9,29.99,North,0,0.0,0.0,53,0.00,,,0.00,WUHU216HW,2013-02-25 22:02:00,
2013-02-25 17:07:00,44.5,28.4,29.99,North,0,0.0,0.0,53,0.00,,,0.00,WUHU216HW,2013-02-25 22:07:00,
2013-02-25 17:12:00,44.3,28.2,29.99,North,0,0.0,0.0,53,0.00,,,0.00,WUHU216HW,2013-02-25 22:12:00,
2013-02-25 17:17:00,43.9,27.9,29.99,North,0,0.0,0.0,53,0.00,,,0.00,WUHU216HW,2013-02-25 22:17:00,
2013-02-25 17:22:00,43.6,27.6,29.99,North,0,0.0,0.0,53,0.00,,,0.00,WUHU216HW,2013-02-25 22:22:00,
2013-02-25 17:27:00,43.2,27.2,29.99,North,0,0.0,0.0,53,0.00,,,0.00,WUHU216HW,2013-02-25 22:27:00,
2013-02-25 17:32:00,42.7,27.1,29.99,North,0,0.0,0.0,54,0.00,,,0.00,WUHU216HW,2013-02-25 22:32:00,
2013-02-25 17:37:00,42.3,26.7,29.99,North,0,0.0,0.0,54,0.00,,,0.00,WUHU216HW,2013-02-25 22:37:00,
2013-02-25 17:42:00,42.1,26.7,29.99,North,0,0.0,0.0,54,0.00,,,0.00,WUHU216HW,2013-02-25 22:42:00,
2013-02-25 17:47:00,41.6,26.1,29.99,North,0,0.0,0.0,54,0.00,,,0.00,WUHU216HW,2013-02-25 22:47:00,
2013-02-25 17:52:00,41.2,26.2,29.99,North,0,0.0,0.0,55,0.00,,,0.00,WUHU216HW,2013-02-25 22:52:00,
2013-02-25 17:57:00,40.7,25.7,30.00,North,0,0.0,0.0,55,0.00,,,0.00,WUHU216HW,2013-02-25 22:57:00,
2013-02-25 18:02:00,40.1,25.6,30.00,North,0,0.0,0.0,56,0.00,,,0.00,WUHU216HW,2013-02-25 23:02:00,
2013-02-25 18:08:00,39.8,25.7,30.00,North,0,0.0,0.0,57,0.00,,,0.00,WUHU216HW,2013-02-25 23:08:00,
2013-02-25 18:13:00,39.2,25.2,30.00,North,0,0.0,0.0,57,0.00,,,0.00,WUHU216HW,2013-02-25 23:13:00,
2013-02-25 18:18:00,39.1,25.5,30.00,North,0,0.0,0.0,58,0.00,,,0.00,WUHU216HW,2013-02-25 23:18:00,
2013-02-25 18:23:00,38.7,25.1,29.99,North,0,0.0,0.0,58,0.00,,,0.00,WUHU216HW,2013-02-25 23:23:00,
2013-02-25 18:28:00,38.3,24.8,29.99,North,0,0.0,0.0,58,0.00,,,0.00,WUHU216HW,2013-02-25 23:28:00,
2013-02-25 18:33:00,38.0,24.9,29.99,North,0,0.0,0.0,59,0.00,,,0.00,WUHU216HW,2013-02-25 23:33:00,
2013-02-25 18:38:00,37.6,24.6,29.99,North,0,0.0,0.0,59,0.00,,,0.00,WUHU216HW,2013-02-25 23:38:00,
2013-02-25 18:43:00,37.3,24.7,30.00,North,0,0.0,0.0,60,0.00,,,0.00,WUHU216HW,2013-02-25 23:43:00,
2013-02-25 18:48:00,36.9,24.4,30.00,North,0,0.0,0.0,60,0.00,,,0.00,WUHU216HW,2013-02-25 23:48:00,
2013-02-25 18:53:00,36.5,24.0,30.00,North,0,0.0,0.0,60,0.00,,,0.00,WUHU216HW,2013-02-25 23:53:00,
2013-02-25 18:58:00,36.4,24.2,30.01,North,0,0.0,0.0,61,0.00,,,0.00,WUHU216HW,2013-02-25 23:58:00,
2013-02-25 19:03:00,36.0,24.0,30.01,North,0,0.0,0.0,61,0.00,,,0.00,WUHU216HW,2013-02-26 00:03:00,
2013-02-25 19:08:00,35.8,23.8,30.01,North,0,0.0,0.0,61,0.00,,,0.00,WUHU216HW,2013-02-26 00:08:00,
2013-02-25 19:13:00,35.6,23.9,30.02,North,0,0.0,0.0,62,0.00,,,0.00,WUHU216HW,2013-02-26 00:13:00,
2013-02-25 19:18:00,35.3,23.6,30.02,North,0,0.0,0.0,62,0.00,,,0.00,WUHU216HW,2013-02-26 00:18:00,
2013-02-25 19:23:00,35.1,23.4,30.02,North,0,0.0,0.0,62,0.00,,,0.00,WUHU216HW,2013-02-26 00:23:00,
2013-02-25 19:28:00,34.9,23.6,30.02,North,0,0.0,0.0,63,0.00,,,0.00,WUHU216HW,2013-02-26 00:28:00,
2013-02-25 19:33:00,34.6,23.2,30.02,North,0,0.0,0.0,63,0.00,,,0.00,WUHU216HW,2013-02-26 00:33:00,
2013-02-25 19:38:00,34.4,23.4,30.02,North,0,0.0,0.0,64,0.00,,,0.00,WUHU216HW,2013-02-26 00:38:00,
2013-02-25 19:44:00,34.2,23.2,30.03,North,0,0.0,0.0,64,0.00,,,0.00,WUHU216HW,2013-02-26 00:44:00,
2013-02-25 19:49:00,33.8,23.2,30.02,North,0,0.0,0.0,65,0.00,,,0.00,WUHU216HW,2013-02-26 00:49:00,
2013-02-25 19:54:00,33.7,23.0,30.02,North,0,0.0,0.0,65,0.00,,,0.00,WUHU216HW,2013-02-26 00:54:00,
2013-02-25 19:59:00,33.5,23.2,30.02,North,0,0.0,0.0,66,0.00,,,0.00,WUHU216HW,2013-02-26 00:59:00,
2013-02-25 20:04:00,33.3,23.1,30.02,North,0,0.0,0.0,66,0.00,,,0.00,WUHU216HW,2013-02-26 01:04:00,
2013-02-25 20:09:00,32.9,23.1,30.02,North,0,0.0,0.0,67,0.00,,,0.00,WUHU216HW,2013-02-26 01:09:00,
2013-02-25 20:14:00,32.8,23.0,30.02,North,0,0.0,0.0,67,0.00,,,0.00,WUHU216HW,2013-02-26 01:14:00,
2013-02-25 20:19:00,32.8,23.0,30.03,North,0,0.0,0.0,67,0.00,,,0.00,WUHU216HW,2013-02-26 01:19:00,
2013-02-25 20:24:00,32.6,23.1,30.02,North,0,0.0,0.0,68,0.00,,,0.00,WUHU216HW,2013-02-26 01:24:00,
2013-02-25 20:29:00,32.4,23.1,30.02,North,0,0.0,0.0,68,0.00,,,0.00,WUHU216HW,2013-02-26 01:29:00,
2013-02-25 20:34:00,32.0,22.7,30.02,North,0,0.0,0.0,68,0.00,,,0.00,WUHU216HW,2013-02-26 01:34:00,
2013-02-25 20:39:00,32.0,23.0,30.02,North,0,0.0,0.0,69,0.00,,,0.00,WUHU216HW,2013-02-26 01:39:00,
2013-02-25 20:44:00,32.0,22.7,30.02,North,0,0.0,0.0,68,0.00,,,0.00,WUHU216HW,2013-02-26 01:44:00,
2013-02-25 20:49:00,31.7,22.7,30.02,North,0,0.0,0.0,69,0.00,,,0.00,WUHU216HW,2013-02-26 01:49:00,
2013-02-25 20:55:00,31.7,22.7,30.02,North,0,0.0,0.0,69,0.00,,,0.00,WUHU216HW,2013-02-26 01:55:00,
2013-02-25 21:00:00,31.3,22.7,30.03,North,0,0.0,0.0,70,0.00,,,0.00,WUHU216HW,2013-02-26 02:00:00,
2013-02-25 21:05:00,31.3,22.7,30.03,North,0,0.0,0.0,70,0.00,,,0.00,WUHU216HW,2013-02-26 02:05:00,
2013-02-25 21:10:00,31.1,22.5,30.02,North,0,0.0,0.0,70,0.00,,,0.00,WUHU216HW,2013-02-26 02:10:00,
2013-02-25 21:15:00,31.0,22.3,30.02,North,0,0.0,0.0,70,0.00,,,0.00,WUHU216HW,2013-02-26 02:15:00,
2013-02-25 21:20:00,30.8,22.5,30.02,North,0,0.0,0.0,71,0.00,,,0.00,WUHU216HW,2013-02-26 02:20:00,
2013-02-25 21:25:00,30.8,22.5,30.02,North,0,0.0,0.0,71,0.00,,,0.00,WUHU216HW,2013-02-26 02:25:00,
2013-02-25 21:30:00,30.6,22.3,30.02,North,0,0.0,0.0,71,0.00,,,0.00,WUHU216HW,2013-02-26 02:30:00,
2013-02-25 21:35:00,30.6,22.6,30.01,North,0,0.0,0.0,72,0.00,,,0.00,WUHU216HW,2013-02-26 02:35:00,
2013-02-25 21:40:00,30.4,22.4,30.01,North,0,0.0,0.0,72,0.00,,,0.00,WUHU216HW,2013-02-26 02:40:00,
2013-02-25 21:45:00,30.2,22.2,30.02,North,0,0.0,0.0,72,0.00,,,0.00,WUHU216HW,2013-02-26 02:45:00,
2013-02-25 21:50:00,30.1,22.4,30.01,North,0,0.0,0.0,73,0.00,,,0.00,WUHU216HW,2013-02-26 02:50:00,
2013-02-25 21:55:00,30.1,22.4,30.02,North,0,0.0,0.0,73,0.00,,,0.00,WUHU216HW,2013-02-26 02:55:00,
2013-02-25 22:00:00,29.9,22.2,30.02,North,0,0.0,0.0,73,0.00,,,0.00,WUHU216HW,2013-02-26 03:00:00,
2013-02-25 22:05:00,29.9,22.2,30.02,North,0,0.0,0.0,73,0.00,,,0.00,WUHU216HW,2013-02-26 03:05:00,
2013-02-25 22:10:00,29.7,22.1,30.02,North,0,0.0,0.0,73,0.00,,,0.00,WUHU216HW,2013-02-26 03:10:00,
2013-02-25 22:15:00,29.5,22.2,30.02,North,0,0.0,0.0,74,0.00,,,0.00,WUHU216HW,2013-02-26 03:15:00,
2013-02-25 22:20:00,29.5,22.5,30.01,North,0,0.0,0.0,75,0.00,,,0.00,WUHU216HW,2013-02-26 03:20:00,
2013-02-25 22:25:00,29.5,22.5,30.02,North,0,0.0,0.0,75,0.00,,,0.00,WUHU216HW,2013-02-26 03:25:00,
2013-02-25 22:31:00,29.5,22.5,30.02,North,0,0.0,0.0,75,0.00,,,0.00,WUHU216HW,2013-02-26 03:31:00,
2013-02-25 22:36:00,29.3,22.4,30.02,North,0,0.0,0.0,75,0.00,,,0.00,WUHU216HW,2013-02-26 03:36:00,
2013-02-25 22:41:00,29.2,22.5,30.01,North,0,0.0,0.0,76,0.00,,,0.00,WUHU216HW,2013-02-26 03:41:00,
2013-02-25 22:46:00,29.2,22.2,30.02,North,0,0.0,0.0,75,0.00,,,0.00,WUHU216HW,2013-02-26 03:46:00,
2013-02-25 22:51:00,29.3,22.7,30.02,North,0,0.0,0.0,76,0.00,,,0.00,WUHU216HW,2013-02-26 03:51:00,
2013-02-25 22:56:00,29.5,22.9,30.02,North,0,0.0,0.0,76,0.00,,,0.00,WUHU216HW,2013-02-26 03:56:00,
2013-02-25 23:01:00,29.5,22.9,30.02,North,0,0.0,0.0,76,0.00,,,0.00,WUHU216HW,2013-02-26 04:01:00,
2013-02-25 23:06:00,29.5,22.9,30.01,North,0,0.0,0.0,76,0.00,,,0.00,WUHU216HW,2013-02-26 04:06:00,
2013-02-25 23:11:00,29.3,22.7,30.00,North,0,0.0,0.0,76,0.00,,,0.00,WUHU216HW,2013-02-26 04:11:00,
2013-02-25 23:16:00,29.2,22.5,30.00,North,0,0.0,0.0,76,0.00,,,0.00,WUHU216HW,2013-02-26 04:16:00,
2013-02-25 23:21:00,29.2,22.5,30.00,North,0,0.0,0.0,76,0.00,,,0.00,WUHU216HW,2013-02-26 04:21:00,
2013-02-25 23:27:00,29.2,22.9,30.00,North,0,0.0,0.0,77,0.00,,,0.00,WUHU216HW,2013-02-26 04:27:00,
2013-02-25 23:32:00,29.0,22.7,30.02,North,0,0.0,0.0,77,0.00,,,0.00,WUHU216HW,2013-02-26 04:32:00,
2013-02-25 23:37:00,29.0,22.7,30.02,North,0,0.0,0.0,77,0.00,,,0.00,WUHU216HW,2013-02-26 04:37:00,
2013-02-25 23:42:00,28.8,22.8,30.02,North,0,0.0,0.0,78,0.00,,,0.00,WUHU216HW,2013-02-26 04:42:00,
2013-02-25 23:47:00,28.6,22.6,30.02,North,0,0.0,0.0,78,0.00,,,0.00,WUHU216HW,2013-02-26 04:47:00,
2013-02-25 23:52:00,28.6,22.6,30.01,North,0,0.0,0.0,78,0.00,,,0.00,WUHU216HW,2013-02-26 04:52:00,
2013-02-25 23:57:00,28.6,23.0,30.02,North,0,0.0,0.0,79,0.00,,,0.00,WUHU216HW,2013-02-26 04:57:00,